createdAt,value
2022-08-21T00:01:33.169Z,19.20
2022-08-21T00:04:14.625Z,19.20
2022-08-21T00:06:56.813Z,19.20
2022-08-21T00:09:32.108Z,19.20
2022-08-21T00:12:12.915Z,19.20
2022-08-21T00:18:00.224Z,19.20
2022-08-21T00:20:51.911Z,19.10
2022-08-21T00:23:21.303Z,19.10
2022-08-21T00:26:28.994Z,19.10
2022-08-21T00:29:12.834Z,19.00
2022-08-21T00:33:06.247Z,19.10
2022-08-21T00:36:14.614Z,19.00
2022-08-21T00:39:34.788Z,19.00
2022-08-21T00:42:21.751Z,20.00
2022-08-21T00:45:15.445Z,18.80
2022-08-21T00:48:54.230Z,18.70
2022-08-21T00:52:10.455Z,19.00
2022-08-21T00:55:14.086Z,18.80
2022-08-21T01:05:48.271Z,18.70
2022-08-21T01:08:20.602Z,18.50
2022-08-21T01:10:51.140Z,18.50
2022-08-21T01:13:31.751Z,18.50
2022-08-21T01:16:03.971Z,18.50
2022-08-21T01:18:33.662Z,18.50
2022-08-21T01:21:11.590Z,18.50
2022-08-21T01:23:46.355Z,18.50
2022-08-21T01:26:18.772Z,18.50
2022-08-21T01:28:52.386Z,18.50
2022-08-21T01:31:26.961Z,18.50
2022-08-21T01:33:57.736Z,18.40
2022-08-21T01:36:29.392Z,18.40
2022-08-21T01:38:58.657Z,18.40
2022-08-21T01:41:27.771Z,18.40
2022-08-21T01:43:57.138Z,18.40
2022-08-21T01:46:26.404Z,18.40
2022-08-21T01:48:55.599Z,18.40
2022-08-21T01:51:24.911Z,18.30
2022-08-21T01:53:55.497Z,18.20
2022-08-21T01:56:24.958Z,18.20
2022-08-21T01:58:54.202Z,18.10
2022-08-21T02:01:23.465Z,18.10
2022-08-21T02:03:53.052Z,18.10
2022-08-21T02:06:22.225Z,18.10
2022-08-21T02:08:52.140Z,18.10
2022-08-21T02:11:23.179Z,18.10
2022-08-21T02:13:52.526Z,18.00
2022-08-21T02:16:21.682Z,17.90
2022-08-21T02:18:50.990Z,17.80
2022-08-21T02:21:22.454Z,17.80
2022-08-21T02:23:51.615Z,17.80
2022-08-21T02:26:22.100Z,17.90
2022-08-21T02:28:51.804Z,17.80
2022-08-21T02:31:20.974Z,17.80
2022-08-21T02:33:50.114Z,17.80
2022-08-21T02:36:19.207Z,17.80
2022-08-21T02:38:48.735Z,17.70
2022-08-21T02:41:20.357Z,17.70
2022-08-21T02:43:51.328Z,17.70
2022-08-21T02:46:24.969Z,17.60
2022-08-21T02:48:54.223Z,17.60
2022-08-21T02:51:23.811Z,17.50
2022-08-21T02:53:53.025Z,17.50
2022-08-21T02:56:23.467Z,17.50
2022-08-21T02:58:55.086Z,17.40
2022-08-21T03:01:24.569Z,17.40
2022-08-21T03:03:54.726Z,17.30
2022-08-21T03:06:26.600Z,17.20
2022-08-21T03:09:35.803Z,17.30
2022-08-21T03:12:05.676Z,17.30
2022-08-21T03:14:36.118Z,17.30
2022-08-21T03:17:06.010Z,17.20
2022-08-21T03:19:35.206Z,17.20
2022-08-21T03:22:04.527Z,17.10
2022-08-21T03:24:34.094Z,17.10
2022-08-21T03:27:03.234Z,17.10
2022-08-21T03:29:39.988Z,17.10
2022-08-21T03:32:10.876Z,17.10
2022-08-21T03:34:40.787Z,17.00
2022-08-21T03:37:12.209Z,17.00
2022-08-21T03:39:42.598Z,16.90
2022-08-21T03:42:11.663Z,16.90
2022-08-21T03:44:42.157Z,16.80
2022-08-21T03:47:11.526Z,16.80
2022-08-21T03:49:40.942Z,16.80
2022-08-21T03:52:10.082Z,16.80
2022-08-21T03:54:40.899Z,16.90
2022-08-21T03:57:11.310Z,16.90
2022-08-21T03:59:41.928Z,16.90
2022-08-21T04:02:11.975Z,16.90
2022-08-21T04:04:41.046Z,16.90
2022-08-21T04:07:10.371Z,16.90
2022-08-21T04:09:39.754Z,16.90
2022-08-21T04:12:09.766Z,16.80
2022-08-21T04:14:38.994Z,16.80
2022-08-21T04:17:09.772Z,16.80
2022-08-21T04:19:38.856Z,16.80
2022-08-21T04:22:07.975Z,16.70
2022-08-21T04:24:37.358Z,16.80
2022-08-21T04:27:06.585Z,16.80
2022-08-21T04:29:39.822Z,16.70
2022-08-21T04:32:10.560Z,16.70
2022-08-21T04:34:39.713Z,16.60
2022-08-21T04:37:08.794Z,16.60
2022-08-21T04:39:37.964Z,16.60
2022-08-21T04:42:07.731Z,16.60
2022-08-21T04:44:37.103Z,16.60
2022-08-21T04:47:06.967Z,16.60
2022-08-21T04:49:37.540Z,16.50
2022-08-21T04:52:07.644Z,16.50
2022-08-21T04:54:36.868Z,16.50
2022-08-21T04:57:12.021Z,16.60
2022-08-21T04:59:45.211Z,16.70
2022-08-21T05:02:14.831Z,16.60
2022-08-21T05:04:52.236Z,16.60
2022-08-21T05:07:42.675Z,16.60
2022-08-21T05:10:13.881Z,16.70
2022-08-21T05:12:44.228Z,16.70
2022-08-21T05:15:14.699Z,16.70
2022-08-21T05:17:44.171Z,16.70
2022-08-21T05:20:24.285Z,16.80
2022-08-21T05:22:53.732Z,16.80
2022-08-21T05:25:23.866Z,16.90
2022-08-21T05:27:53.114Z,16.90
2022-08-21T05:30:23.045Z,17.00
2022-08-21T05:32:58.530Z,17.00
2022-08-21T05:35:30.299Z,17.20
2022-08-21T05:38:00.771Z,17.50
2022-08-21T05:40:30.290Z,17.90
2022-08-21T05:43:00.136Z,18.40
2022-08-21T05:45:43.191Z,19.00
2022-08-21T05:48:16.227Z,19.50
2022-08-21T05:50:48.871Z,20.10
2022-08-21T05:53:20.916Z,20.60
2022-08-21T05:55:50.842Z,21.00
2022-08-21T05:58:23.695Z,21.40
2022-08-21T06:00:54.093Z,21.70
2022-08-21T06:03:26.513Z,22.00
2022-08-21T06:05:57.714Z,22.20
2022-08-21T06:08:27.566Z,22.40
2022-08-21T06:11:00.332Z,22.50
2022-08-21T06:13:29.715Z,22.60
2022-08-21T06:16:08.997Z,22.70
2022-08-21T06:18:39.518Z,22.90
2022-08-21T06:21:12.338Z,23.00
2022-08-21T06:23:42.344Z,23.10
2022-08-21T06:26:14.394Z,23.20
2022-08-21T06:28:44.686Z,23.40
2022-08-21T06:31:16.644Z,23.50
2022-08-21T06:33:46.236Z,23.50
2022-08-21T06:36:17.328Z,23.60
2022-08-21T06:38:50.936Z,23.60
2022-08-21T06:41:24.092Z,23.70
2022-08-21T06:43:56.642Z,23.80
2022-08-21T06:46:28.699Z,23.90
2022-08-21T06:48:58.420Z,24.00
2022-08-21T06:51:30.040Z,24.00
2022-08-21T06:53:59.506Z,24.10
2022-08-21T06:56:29.015Z,24.20
2022-08-21T06:58:58.256Z,24.20
2022-08-21T07:01:29.130Z,24.30
2022-08-21T07:03:58.294Z,24.30
2022-08-21T07:06:29.589Z,24.30
2022-08-21T07:09:03.866Z,24.30
2022-08-21T07:11:33.122Z,24.30
2022-08-21T07:14:11.653Z,24.30
2022-08-21T07:16:49.968Z,24.30
2022-08-21T07:19:19.388Z,24.30
2022-08-21T07:21:50.264Z,24.40
2022-08-21T07:24:19.493Z,24.50
2022-08-21T07:26:48.686Z,24.50
2022-08-21T07:29:18.313Z,24.60
2022-08-21T07:31:47.906Z,24.40
2022-08-21T07:34:17.193Z,24.30
2022-08-21T07:36:47.064Z,24.30
2022-08-21T07:39:17.584Z,24.30
2022-08-21T07:41:46.669Z,24.30
2022-08-21T07:44:15.974Z,24.20
2022-08-21T07:46:45.479Z,24.10
2022-08-21T07:49:14.581Z,24.00
2022-08-21T07:51:44.081Z,24.00
2022-08-21T07:54:17.295Z,24.00
2022-08-21T07:56:47.995Z,23.80
2022-08-21T07:59:17.103Z,23.70
2022-08-21T08:01:46.269Z,23.70
2022-08-21T08:04:15.983Z,23.80
2022-08-21T08:06:45.058Z,23.70
2022-08-21T08:09:14.154Z,23.70
2022-08-21T08:11:45.291Z,23.70
2022-08-21T08:14:16.563Z,23.80
2022-08-21T08:16:46.183Z,23.80
2022-08-21T08:19:15.248Z,23.80
2022-08-21T08:21:44.370Z,23.80
2022-08-21T08:24:19.768Z,23.90
2022-08-21T08:26:54.002Z,23.90
2022-08-21T08:29:24.741Z,23.80
2022-08-21T08:31:53.868Z,23.90
2022-08-21T08:34:25.464Z,23.90
2022-08-21T08:36:55.221Z,23.80
2022-08-21T08:39:26.847Z,23.80
2022-08-21T08:42:34.017Z,23.80
2022-08-21T08:45:02.170Z,23.70
2022-08-21T08:47:33.720Z,23.80
2022-08-21T08:50:08.682Z,23.80
2022-08-21T08:52:44.797Z,23.80
2022-08-21T08:55:24.233Z,24.00
2022-08-21T08:57:57.551Z,24.00
2022-08-21T09:00:28.447Z,24.00
2022-08-21T09:03:03.354Z,24.00
2022-08-21T09:05:47.134Z,24.00
2022-08-21T09:08:43.988Z,24.00
2022-08-21T09:11:20.177Z,24.10
2022-08-21T09:14:00.255Z,24.10
2022-08-21T09:16:43.764Z,24.20
2022-08-21T09:19:35.234Z,24.30
2022-08-21T09:22:15.395Z,24.00
2022-08-21T09:24:56.527Z,23.90
2022-08-21T09:27:25.770Z,24.00
2022-08-21T09:29:58.906Z,24.20
2022-08-21T09:32:37.529Z,24.30
2022-08-21T09:35:12.621Z,24.30
2022-08-21T09:37:53.765Z,24.30
2022-08-21T09:40:34.186Z,24.20
2022-08-21T09:43:08.702Z,24.20
2022-08-21T09:45:40.177Z,24.30
2022-08-21T09:48:17.087Z,24.30
2022-08-21T09:50:49.792Z,24.30
2022-08-21T09:53:22.695Z,24.40
2022-08-21T09:56:13.748Z,24.50
2022-08-21T09:58:46.638Z,24.50
2022-08-21T10:01:18.607Z,24.50
2022-08-21T10:04:06.425Z,24.50
2022-08-21T10:06:38.149Z,24.60
2022-08-21T10:09:16.958Z,24.60
2022-08-21T10:12:00.761Z,24.70
2022-08-21T10:14:46.861Z,24.80
2022-08-21T10:17:24.519Z,24.90
2022-08-21T10:20:07.713Z,25.00
2022-08-21T10:22:47.986Z,25.20
2022-08-21T10:25:23.462Z,25.40
2022-08-21T10:28:02.026Z,25.40
2022-08-21T10:30:43.645Z,25.50
2022-08-21T10:33:32.124Z,25.50
2022-08-21T10:36:11.533Z,25.60
2022-08-21T10:42:16.857Z,25.90
2022-08-21T10:45:00.122Z,25.90
2022-08-21T10:47:35.169Z,25.90
2022-08-21T10:50:13.239Z,26.00
2022-08-21T10:53:08.307Z,26.00
2022-08-21T10:55:43.028Z,26.10
2022-08-21T10:58:16.751Z,25.90
2022-08-21T11:00:51.575Z,25.80
2022-08-21T11:03:31.451Z,25.80
2022-08-21T11:06:07.044Z,25.90
2022-08-21T11:08:43.669Z,26.00
2022-08-21T11:11:21.664Z,26.10
2022-08-21T11:13:56.181Z,26.20
2022-08-21T11:16:35.676Z,26.30
2022-08-21T11:19:13.283Z,26.50
2022-08-21T11:21:49.632Z,26.60
2022-08-21T11:24:32.294Z,26.70
2022-08-21T11:27:07.064Z,26.80
2022-08-21T11:29:41.090Z,26.80
2022-08-21T11:32:33.557Z,27.00
2022-08-21T11:35:12.717Z,27.00
2022-08-21T11:38:04.518Z,27.10
2022-08-21T11:41:03.720Z,27.30
2022-08-21T11:43:41.294Z,27.40
2022-08-21T11:46:26.008Z,27.40
2022-08-21T11:49:25.948Z,27.30
2022-08-21T11:52:09.981Z,27.30
2022-08-21T11:54:46.763Z,27.30
2022-08-21T11:57:23.538Z,27.40
2022-08-21T12:00:01.624Z,27.50
2022-08-21T12:02:38.689Z,27.50
2022-08-21T12:05:11.343Z,27.60
2022-08-21T12:07:45.630Z,27.60
2022-08-21T12:10:32.990Z,27.70
2022-08-21T12:13:14.675Z,27.70
2022-08-21T12:15:46.760Z,27.70
2022-08-21T12:18:33.230Z,27.70
2022-08-21T12:21:19.733Z,27.70
2022-08-21T12:23:59.793Z,27.50
2022-08-21T12:27:01.506Z,27.40
2022-08-21T12:29:35.397Z,27.30
2022-08-21T12:32:24.060Z,27.40
2022-08-21T12:34:58.215Z,27.50
2022-08-21T12:37:42.827Z,27.50
2022-08-21T12:40:20.729Z,27.40
2022-08-21T12:46:32.182Z,27.40
2022-08-21T12:49:09.930Z,27.40
2022-08-21T12:51:53.200Z,27.20
2022-08-21T12:54:29.223Z,27.10
2022-08-21T12:57:02.750Z,27.10
2022-08-21T12:59:33.507Z,27.10
2022-08-21T13:07:46.841Z,27.20
2022-08-21T13:11:49.572Z,27.20
2022-08-21T13:19:10.589Z,27.10
2022-08-21T13:21:45.690Z,27.10
2022-08-21T13:27:33.454Z,27.10
2022-08-21T13:30:14.555Z,27.20
2022-08-21T13:32:47.318Z,27.30
2022-08-21T13:35:20.433Z,27.30
2022-08-21T13:37:52.892Z,27.40
2022-08-21T13:40:31.075Z,27.30
2022-08-21T13:43:02.410Z,27.30
2022-08-21T13:45:34.870Z,27.40
2022-08-21T13:48:06.175Z,27.40
2022-08-21T13:50:38.706Z,27.40
2022-08-21T13:53:10.308Z,27.40
2022-08-21T13:55:44.780Z,27.50
2022-08-21T13:58:14.145Z,27.50
2022-08-21T14:00:49.512Z,27.50
2022-08-21T14:03:32.441Z,27.50
2022-08-21T14:06:02.297Z,27.50
2022-08-21T14:08:37.360Z,27.70
2022-08-21T14:11:12.444Z,27.70
2022-08-21T14:13:46.454Z,27.70
2022-08-21T14:16:22.984Z,27.70
2022-08-21T14:19:08.009Z,27.70
2022-08-21T14:21:40.696Z,27.60
2022-08-21T14:24:14.044Z,27.60
2022-08-21T14:26:52.502Z,27.60
2022-08-21T14:29:27.235Z,27.60
2022-08-21T14:32:24.636Z,27.70
2022-08-21T14:34:55.496Z,27.70
2022-08-21T14:37:28.474Z,27.80
2022-08-21T14:39:57.794Z,27.80
2022-08-21T14:42:28.620Z,27.80
2022-08-21T14:45:03.910Z,27.80
2022-08-21T14:47:33.143Z,27.80
2022-08-21T14:50:02.337Z,27.70
2022-08-21T14:52:31.575Z,27.60
2022-08-21T14:55:00.776Z,27.70
2022-08-21T14:57:33.837Z,27.70
2022-08-21T15:00:03.533Z,27.70
2022-08-21T15:02:32.916Z,27.70
2022-08-21T15:05:02.230Z,27.70
2022-08-21T15:07:31.512Z,27.70
2022-08-21T15:10:01.091Z,27.70
2022-08-21T15:12:31.767Z,27.70
2022-08-21T15:15:01.625Z,27.70
2022-08-21T15:17:31.077Z,27.80
2022-08-21T15:20:00.296Z,27.70
2022-08-21T15:22:30.449Z,27.80
2022-08-21T15:24:59.824Z,27.70
2022-08-21T15:27:29.799Z,27.60
2022-08-21T15:30:00.642Z,27.40
2022-08-21T15:32:31.753Z,27.40
2022-08-21T15:35:01.205Z,27.50
2022-08-21T15:37:30.350Z,27.60
2022-08-21T15:39:59.759Z,27.60
2022-08-21T15:42:29.903Z,27.70
2022-08-21T15:45:00.529Z,27.70
2022-08-21T15:47:34.361Z,27.60
2022-08-21T15:50:05.909Z,27.70
2022-08-21T15:52:35.696Z,27.70
2022-08-21T15:55:06.675Z,27.70
2022-08-21T15:57:38.132Z,27.70
2022-08-21T16:00:16.250Z,27.70
2022-08-21T16:02:49.772Z,27.70
2022-08-21T16:05:19.883Z,27.70
2022-08-21T16:07:51.320Z,27.60
2022-08-21T16:10:24.137Z,27.60
2022-08-21T16:13:03.754Z,27.60
2022-08-21T16:15:34.792Z,27.40
2022-08-21T16:18:04.102Z,27.40
2022-08-21T16:20:33.316Z,27.40
2022-08-21T16:23:02.809Z,27.40
2022-08-21T16:25:34.128Z,27.40
2022-08-21T16:28:05.121Z,27.40
2022-08-21T16:30:38.337Z,27.40
2022-08-21T16:33:09.489Z,27.40
2022-08-21T16:35:38.941Z,27.40
2022-08-21T16:38:08.148Z,27.40
2022-08-21T16:40:37.856Z,27.30
2022-08-21T16:43:07.226Z,27.40
2022-08-21T16:45:39.059Z,27.40
2022-08-21T16:48:09.836Z,27.40
2022-08-21T16:50:39.608Z,27.20
2022-08-21T16:53:09.240Z,27.10
2022-08-21T16:55:39.064Z,27.10
2022-08-21T16:58:22.296Z,27.10
2022-08-21T17:00:53.380Z,27.10
2022-08-21T17:03:35.377Z,27.10
2022-08-21T17:06:05.218Z,27.20
2022-08-21T17:08:34.989Z,27.20
2022-08-21T17:11:05.730Z,27.20
2022-08-21T17:13:35.542Z,27.20
2022-08-21T17:16:07.684Z,27.20
2022-08-21T17:18:36.890Z,27.20
2022-08-21T17:21:06.962Z,27.10
2022-08-21T17:23:36.762Z,27.10
2022-08-21T17:26:12.818Z,27.10
2022-08-21T17:28:42.580Z,27.20
2022-08-21T17:31:14.647Z,27.20
2022-08-21T17:33:50.380Z,27.20
2022-08-21T17:36:21.179Z,27.20
2022-08-21T17:38:50.736Z,27.20
2022-08-21T17:41:22.470Z,27.20
2022-08-21T17:43:52.471Z,27.10
2022-08-21T17:46:27.041Z,27.00
2022-08-21T17:48:57.404Z,26.90
2022-08-21T17:51:26.580Z,26.80
2022-08-21T17:53:55.790Z,26.80
2022-08-21T17:56:35.110Z,26.80
2022-08-21T17:59:06.373Z,26.80
2022-08-21T18:01:43.629Z,26.70
2022-08-21T18:04:17.430Z,26.70
2022-08-21T18:06:47.276Z,26.70
2022-08-21T18:09:17.390Z,26.70
2022-08-21T18:11:46.588Z,26.60
2022-08-21T18:14:15.945Z,26.60
2022-08-21T18:16:46.355Z,26.50
2022-08-21T18:19:17.388Z,26.50
2022-08-21T18:21:46.459Z,26.50
2022-08-21T18:24:16.056Z,26.40
2022-08-21T18:26:45.398Z,26.40
2022-08-21T18:29:18.488Z,26.30
2022-08-21T18:31:50.086Z,26.20
2022-08-21T18:34:27.417Z,26.10
2022-08-21T18:36:57.264Z,26.00
2022-08-21T18:39:36.265Z,25.90
2022-08-21T18:42:12.377Z,25.80
2022-08-21T18:44:42.679Z,25.80
2022-08-21T18:47:24.412Z,25.70
2022-08-21T18:49:53.638Z,25.60
2022-08-21T18:52:22.674Z,25.50
2022-08-21T18:54:57.586Z,25.40
2022-08-21T18:57:30.661Z,25.30
2022-08-21T19:00:01.004Z,25.20
2022-08-21T19:02:31.578Z,25.10
2022-08-21T19:05:03.239Z,25.10
2022-08-21T19:07:34.068Z,25.00
2022-08-21T19:10:24.386Z,25.00
2022-08-21T19:12:55.258Z,24.90
2022-08-21T19:15:24.539Z,24.80
2022-08-21T19:17:56.302Z,24.70
2022-08-21T19:20:28.996Z,24.70
2022-08-21T19:22:58.487Z,24.60
2022-08-21T19:25:33.883Z,24.50
2022-08-21T19:28:11.126Z,24.50
2022-08-21T19:30:45.780Z,24.50
2022-08-21T19:33:23.439Z,24.40
2022-08-21T19:35:53.375Z,24.40
2022-08-21T19:38:22.798Z,24.30
2022-08-21T19:40:53.241Z,24.30
2022-08-21T19:46:13.656Z,24.10
2022-08-21T19:48:46.829Z,24.00
2022-08-21T19:51:16.252Z,23.90
2022-08-21T19:53:45.270Z,23.90
2022-08-21T19:56:21.082Z,23.80
2022-08-21T19:58:51.915Z,23.70
2022-08-21T20:01:25.241Z,23.60
2022-08-21T20:03:57.161Z,23.50
2022-08-21T20:06:27.825Z,23.40
2022-08-21T20:08:57.097Z,23.40
2022-08-21T20:11:31.496Z,23.30
2022-08-21T20:14:01.786Z,23.30
2022-08-21T20:16:32.237Z,23.20
2022-08-21T20:19:05.270Z,23.20
2022-08-21T20:21:43.686Z,23.10
2022-08-21T20:24:14.720Z,22.90
2022-08-21T20:26:49.191Z,22.90
2022-08-21T20:29:23.884Z,22.80
2022-08-21T20:32:12.139Z,22.80
2022-08-21T20:34:45.020Z,22.80
2022-08-21T20:37:14.494Z,22.70
2022-08-21T20:40:07.863Z,22.60
2022-08-21T20:42:37.287Z,22.60
2022-08-21T20:45:08.830Z,22.50
2022-08-21T20:47:38.463Z,22.40
2022-08-21T20:50:14.219Z,22.40
2022-08-21T20:52:44.161Z,22.30
2022-08-21T20:55:17.102Z,22.30
2022-08-21T20:57:53.875Z,22.20
2022-08-21T21:00:26.141Z,22.20
2022-08-21T21:05:58.338Z,22.00
2022-08-21T21:08:33.369Z,22.00
2022-08-21T21:11:06.610Z,21.90
2022-08-21T21:13:43.608Z,21.80
2022-08-21T21:16:20.039Z,21.80
2022-08-21T21:18:54.386Z,21.70
2022-08-21T21:21:33.492Z,21.70
2022-08-21T21:24:09.334Z,21.60
2022-08-21T21:26:48.746Z,21.60
2022-08-21T21:29:24.890Z,21.50
2022-08-21T21:31:55.594Z,21.40
2022-08-21T21:34:28.137Z,21.40
2022-08-21T21:37:06.185Z,21.40
2022-08-21T21:39:46.164Z,21.30
2022-08-21T21:42:30.007Z,21.30
2022-08-21T21:45:13.741Z,21.20
2022-08-21T21:47:59.071Z,21.10
2022-08-21T21:50:45.533Z,21.10
2022-08-21T21:53:46.058Z,21.00
2022-08-21T21:56:29.837Z,20.90
2022-08-21T21:59:20.457Z,20.90
2022-08-21T22:01:59.277Z,20.90
2022-08-21T22:04:35.764Z,20.90
2022-08-21T22:07:12.197Z,20.80
2022-08-21T22:09:50.376Z,20.70
2022-08-21T22:12:49.567Z,20.70
2022-08-21T22:15:27.480Z,20.60
2022-08-21T22:18:04.025Z,20.50
2022-08-21T22:20:41.373Z,20.50
2022-08-21T22:23:18.426Z,20.50
2022-08-21T22:25:53.509Z,20.40
2022-08-21T22:28:27.213Z,20.40
2022-08-21T22:31:12.560Z,20.30
2022-08-21T22:33:43.332Z,20.30
2022-08-21T22:36:19.855Z,20.30
2022-08-21T22:41:45.803Z,20.30
2022-08-21T22:44:24.095Z,20.20
2022-08-21T22:47:00.535Z,20.10
2022-08-21T22:49:38.001Z,20.10
2022-08-21T22:52:13.450Z,20.00
2022-08-21T22:54:45.866Z,20.00
2022-08-21T22:57:27.890Z,20.00
2022-08-21T23:00:02.071Z,20.00
2022-08-21T23:02:39.729Z,20.00
2022-08-21T23:05:21.286Z,20.00
2022-08-21T23:07:51.385Z,20.00
2022-08-21T23:10:27.979Z,20.00
2022-08-21T23:13:09.468Z,20.00
2022-08-21T23:15:49.847Z,20.00
2022-08-21T23:18:30.131Z,20.00
2022-08-21T23:21:08.122Z,20.00
2022-08-21T23:23:59.261Z,19.90
2022-08-21T23:26:37.447Z,19.80
2022-08-21T23:29:24.834Z,19.80
2022-08-21T23:32:04.467Z,19.80
2022-08-21T23:34:43.748Z,19.70
2022-08-21T23:37:49.794Z,19.70
2022-08-21T23:40:36.843Z,19.70
2022-08-21T23:43:33.174Z,19.60
2022-08-21T23:46:32.360Z,19.60
2022-08-21T23:49:21.293Z,19.60
2022-08-21T23:52:04.732Z,19.50
2022-08-21T23:54:46.022Z,19.60
2022-08-21T23:57:31.781Z,19.60
